sensor_id;sensor_type;location;lat;lon;timestamp;pressure;altitude;pressure_sealevel;temperature;humidity
21828;BME280;11076;47.942;11.804;2023-05-01T00:00:11;94193.66;;;6.79;90.13
21828;BME280;11076;47.942;11.804;2023-05-01T00:05:16;94194.03;;;6.69;90.70
21828;BME280;11076;47.942;11.804;2023-05-01T00:10:19;94182.16;;;6.65;90.92
21828;BME280;11076;47.942;11.804;2023-05-01T00:15:21;94183.16;;;6.57;91.42
21828;BME280;11076;47.942;11.804;2023-05-01T00:20:28;94173.97;;;6.60;91.64
21828;BME280;11076;47.942;11.804;2023-05-01T00:25:30;94164.38;;;6.59;91.21
21828;BME280;11076;47.942;11.804;2023-05-01T00:30:32;94154.16;;;6.63;91.40
21828;BME280;11076;47.942;11.804;2023-05-01T00:35:35;94158.88;;;6.61;90.99
21828;BME280;11076;47.942;11.804;2023-05-01T00:40:45;94158.22;;;6.52;91.68
21828;BME280;11076;47.942;11.804;2023-05-01T00:45:47;94151.03;;;6.39;91.66
21828;BME280;11076;47.942;11.804;2023-05-01T00:50:51;94145.84;;;6.24;91.69
21828;BME280;11076;47.942;11.804;2023-05-01T00:55:55;94155.22;;;6.13;92.07
21828;BME280;11076;47.942;11.804;2023-05-01T01:00:59;94144.75;;;6.05;92.23
21828;BME280;11076;47.942;11.804;2023-05-01T01:06:27;94156.19;;;6.06;93.03
21828;BME280;11076;47.942;11.804;2023-05-01T01:11:45;94154.13;;;6.01;93.23
21828;BME280;11076;47.942;11.804;2023-05-01T01:17:12;94140.16;;;5.92;94.42
21828;BME280;11076;47.942;11.804;2023-05-01T01:22:22;94135.63;;;5.86;95.39
21828;BME280;11076;47.942;11.804;2023-05-01T01:27:38;94126.63;;;5.81;95.33
21828;BME280;11076;47.942;11.804;2023-05-01T01:33:21;94134.34;;;5.75;95.10
21828;BME280;11076;47.942;11.804;2023-05-01T01:38:53;94126.16;;;5.70;95.49
21828;BME280;11076;47.942;11.804;2023-05-01T01:44:01;94117.97;;;5.65;96.45
21828;BME280;11076;47.942;11.804;2023-05-01T01:49:06;94115.09;;;5.60;96.18
21828;BME280;11076;47.942;11.804;2023-05-01T01:54:12;94115.09;;;5.60;96.36
21828;BME280;11076;47.942;11.804;2023-05-01T01:59:17;94109.75;;;5.53;96.70
21828;BME280;11076;47.942;11.804;2023-05-01T02:04:22;94105.59;;;5.44;97.20
21828;BME280;11076;47.942;11.804;2023-05-01T02:09:27;94100.72;;;5.48;96.73
21828;BME280;11076;47.942;11.804;2023-05-01T02:14:30;94094.91;;;5.31;97.25
21828;BME280;11076;47.942;11.804;2023-05-01T02:19:33;94093.66;;;5.27;97.45
21828;BME280;11076;47.942;11.804;2023-05-01T02:24:37;94091.22;;;5.25;97.52
21828;BME280;11076;47.942;11.804;2023-05-01T02:29:41;94096.06;;;5.22;98.29
21828;BME280;11076;47.942;11.804;2023-05-01T02:34:44;94085.81;;;5.12;98.52
21828;BME280;11076;47.942;11.804;2023-05-01T02:39:46;94075.03;;;5.13;99.09
21828;BME280;11076;47.942;11.804;2023-05-01T02:44:53;94065.44;;;5.19;98.63
21828;BME280;11076;47.942;11.804;2023-05-01T02:49:57;94071.97;;;5.16;99.13
21828;BME280;11076;47.942;11.804;2023-05-01T02:55:01;94067.28;;;5.18;99.18
21828;BME280;11076;47.942;11.804;2023-05-01T03:00:05;94059.13;;;5.13;99.60
21828;BME280;11076;47.942;11.804;2023-05-01T03:05:10;94056.03;;;5.10;99.20
21828;BME280;11076;47.942;11.804;2023-05-01T03:10:12;94057.19;;;5.01;100.00
21828;BME280;11076;47.942;11.804;2023-05-01T03:15:15;94057.19;;;5.01;100.00
21828;BME280;11076;47.942;11.804;2023-05-01T03:20:18;94057.19;;;5.01;100.00
21828;BME280;11076;47.942;11.804;2023-05-01T03:25:20;94053.03;;;4.91;100.00
21828;BME280;11076;47.942;11.804;2023-05-01T03:30:22;94053.03;;;4.91;100.00
21828;BME280;11076;47.942;11.804;2023-05-01T03:35:26;94056.31;;;4.93;100.00
21828;BME280;11076;47.942;11.804;2023-05-01T03:40:29;94063.13;;;4.81;100.00
21828;BME280;11076;47.942;11.804;2023-05-01T03:45:51;94051.84;;;4.94;100.00
21828;BME280;11076;47.942;11.804;2023-05-01T03:50:53;94046.44;;;5.09;100.00
21828;BME280;11076;47.942;11.804;2023-05-01T03:55:56;94048.22;;;5.02;100.00
21828;BME280;11076;47.942;11.804;2023-05-01T04:00:58;94048.59;;;4.98;100.00
21828;BME280;11076;47.942;11.804;2023-05-01T04:06:02;94033.72;;;4.97;100.00
21828;BME280;11076;47.942;11.804;2023-05-01T04:11:04;94042.16;;;5.08;100.00
21828;BME280;11076;47.942;11.804;2023-05-01T04:16:07;94043.63;;;5.17;100.00
21828;BME280;11076;47.942;11.804;2023-05-01T04:21:10;94050.78;;;5.23;100.00
21828;BME280;11076;47.942;11.804;2023-05-01T04:26:13;94043.66;;;5.58;100.00
21828;BME280;11076;47.942;11.804;2023-05-01T04:31:16;94047.09;;;5.94;100.00
21828;BME280;11076;47.942;11.804;2023-05-01T04:36:18;94047.44;;;6.26;100.00
21828;BME280;11076;47.942;11.804;2023-05-01T04:41:21;94044.41;;;6.55;100.00
21828;BME280;11076;47.942;11.804;2023-05-01T04:46:23;94034.22;;;6.79;100.00
21828;BME280;11076;47.942;11.804;2023-05-01T04:51:27;94034.16;;;7.46;98.67
21828;BME280;11076;47.942;11.804;2023-05-01T04:56:30;94032.78;;;7.95;97.62
21828;BME280;11076;47.942;11.804;2023-05-01T05:01:35;94038.97;;;8.27;97.78
21828;BME280;11076;47.942;11.804;2023-05-01T05:06:38;94035.16;;;8.55;96.76
21828;BME280;11076;47.942;11.804;2023-05-01T05:11:46;94031.44;;;10.49;90.76
21828;BME280;11076;47.942;11.804;2023-05-01T05:16:55;94036.94;;;11.31;88.52
21828;BME280;11076;47.942;11.804;2023-05-01T05:21:57;94029.38;;;11.75;86.30
21828;BME280;11076;47.942;11.804;2023-05-01T05:27:00;94023.91;;;12.34;81.98
21828;BME280;11076;47.942;11.804;2023-05-01T05:32:02;94030.47;;;12.84;75.45
21828;BME280;11076;47.942;11.804;2023-05-01T05:37:05;94037.16;;;12.41;74.31
21828;BME280;11076;47.942;11.804;2023-05-01T05:42:12;94039.94;;;12.18;76.08
21828;BME280;11076;47.942;11.804;2023-05-01T05:47:14;94047.09;;;12.41;75.19
21828;BME280;11076;47.942;11.804;2023-05-01T05:52:17;94042.56;;;12.29;74.32
21828;BME280;11076;47.942;11.804;2023-05-01T05:57:19;94046.31;;;12.28;72.61
21828;BME280;11076;47.942;11.804;2023-05-01T06:02:24;94044.56;;;12.34;72.08
21828;BME280;11076;47.942;11.804;2023-05-01T06:07:27;94046.28;;;12.40;70.80
21828;BME280;11076;47.942;11.804;2023-05-01T06:12:30;94042.00;;;12.27;70.77
21828;BME280;11076;47.942;11.804;2023-05-01T06:17:33;94037.41;;;11.99;70.94
21828;BME280;11076;47.942;11.804;2023-05-01T06:22:37;94049.75;;;12.12;71.43
21828;BME280;11076;47.942;11.804;2023-05-01T06:27:52;94041.88;;;12.34;70.16
21828;BME280;11076;47.942;11.804;2023-05-01T06:32:56;94045.38;;;12.63;69.78
21828;BME280;11076;47.942;11.804;2023-05-01T06:37:59;94042.69;;;12.92;70.33
21828;BME280;11076;47.942;11.804;2023-05-01T06:43:02;94045.16;;;13.27;68.48
21828;BME280;11076;47.942;11.804;2023-05-01T06:48:04;94042.25;;;12.83;70.82
21828;BME280;11076;47.942;11.804;2023-05-01T06:53:08;94046.44;;;13.08;72.43
21828;BME280;11076;47.942;11.804;2023-05-01T06:58:11;94050.84;;;13.14;71.76
21828;BME280;11076;47.942;11.804;2023-05-01T07:03:17;94054.31;;;13.43;72.77
21828;BME280;11076;47.942;11.804;2023-05-01T07:08:20;94046.53;;;13.81;72.69
21828;BME280;11076;47.942;11.804;2023-05-01T07:13:23;94049.13;;;13.76;71.23
21828;BME280;11076;47.942;11.804;2023-05-01T07:18:25;94043.03;;;14.02;71.77
21828;BME280;11076;47.942;11.804;2023-05-01T07:23:27;94043.69;;;14.09;71.32
21828;BME280;11076;47.942;11.804;2023-05-01T07:28:30;94043.94;;;14.08;70.11
21828;BME280;11076;47.942;11.804;2023-05-01T07:33:33;94044.59;;;13.98;71.33
21828;BME280;11076;47.942;11.804;2023-05-01T07:38:35;94049.75;;;14.22;71.44
21828;BME280;11076;47.942;11.804;2023-05-01T07:43:38;94052.97;;;14.19;72.50
21828;BME280;11076;47.942;11.804;2023-05-01T07:48:40;94048.75;;;14.28;72.68
21828;BME280;11076;47.942;11.804;2023-05-01T07:53:42;94056.59;;;14.29;72.91
21828;BME280;11076;47.942;11.804;2023-05-01T07:58:45;94062.50;;;14.09;73.66
21828;BME280;11076;47.942;11.804;2023-05-01T08:03:47;94067.09;;;14.31;73.65
21828;BME280;11076;47.942;11.804;2023-05-01T08:08:51;94060.75;;;14.42;73.81
21828;BME280;11076;47.942;11.804;2023-05-01T08:13:53;94060.50;;;14.22;73.78
21828;BME280;11076;47.942;11.804;2023-05-01T08:18:56;94070.91;;;14.35;73.67
21828;BME280;11076;47.942;11.804;2023-05-01T08:23:58;94072.59;;;14.19;73.41
21828;BME280;11076;47.942;11.804;2023-05-01T08:29:01;94058.78;;;14.32;74.32
21828;BME280;11076;47.942;11.804;2023-05-01T08:34:04;94067.22;;;14.63;72.38
21828;BME280;11076;47.942;11.804;2023-05-01T08:39:07;94074.97;;;14.82;70.55
21828;BME280;11076;47.942;11.804;2023-05-01T08:44:09;94072.03;;;15.10;70.33
21828;BME280;11076;47.942;11.804;2023-05-01T08:49:14;94066.63;;;15.38;68.69
21828;BME280;11076;47.942;11.804;2023-05-01T08:54:18;94073.16;;;15.47;68.51
21828;BME280;11076;47.942;11.804;2023-05-01T08:59:22;94077.66;;;15.68;67.94
21828;BME280;11076;47.942;11.804;2023-05-01T09:04:30;94071.88;;;15.87;67.87
21828;BME280;11076;47.942;11.804;2023-05-01T09:09:33;94079.38;;;16.22;67.19
21828;BME280;11076;47.942;11.804;2023-05-01T09:14:36;94083.44;;;16.20;66.92
21828;BME280;11076;47.942;11.804;2023-05-01T09:19:39;94084.00;;;15.84;66.12
21828;BME280;11076;47.942;11.804;2023-05-01T09:24:42;94092.09;;;15.52;67.62
21828;BME280;11076;47.942;11.804;2023-05-01T09:29:46;94080.91;;;15.70;66.77
21828;BME280;11076;47.942;11.804;2023-05-01T09:34:50;94085.97;;;15.94;67.55
21828;BME280;11076;47.942;11.804;2023-05-01T09:40:03;94086.53;;;16.01;67.00
21828;BME280;11076;47.942;11.804;2023-05-01T09:45:11;94085.78;;;15.74;67.74
21828;BME280;11076;47.942;11.804;2023-05-01T09:50:30;94088.84;;;15.82;67.31
21828;BME280;11076;47.942;11.804;2023-05-01T09:55:33;94083.69;;;15.48;68.62
21828;BME280;11076;47.942;11.804;2023-05-01T10:00:47;94096.47;;;15.63;68.62
21828;BME280;11076;47.942;11.804;2023-05-01T10:05:50;94091.59;;;15.60;69.39
21828;BME280;11076;47.942;11.804;2023-05-01T10:11:02;94083.47;;;15.87;68.89
21828;BME280;11076;47.942;11.804;2023-05-01T10:16:36;94091.47;;;16.09;69.06
21828;BME280;11076;47.942;11.804;2023-05-01T10:21:39;94098.41;;;16.05;68.07
21828;BME280;11076;47.942;11.804;2023-05-01T10:26:41;94097.13;;;16.13;69.33
21828;BME280;11076;47.942;11.804;2023-05-01T10:31:47;94098.22;;;15.75;68.13
21828;BME280;11076;47.942;11.804;2023-05-01T10:36:57;94102.31;;;15.50;70.45
21828;BME280;11076;47.942;11.804;2023-05-01T10:42:03;94094.47;;;15.76;69.02
21828;BME280;11076;47.942;11.804;2023-05-01T10:58:13;94092.50;;;15.71;70.61
21828;BME280;11076;47.942;11.804;2023-05-01T11:08:34;94072.72;;;16.40;67.73
21828;BME280;11076;47.942;11.804;2023-05-01T11:18:58;94070.47;;;15.47;69.08
21828;BME280;11076;47.942;11.804;2023-05-01T11:24:01;94072.16;;;15.26;69.68
21828;BME280;11076;47.942;11.804;2023-05-01T11:29:04;94075.44;;;15.60;69.52
21828;BME280;11076;47.942;11.804;2023-05-01T11:34:07;94064.44;;;15.67;69.55
21828;BME280;11076;47.942;11.804;2023-05-01T11:39:13;94066.84;;;15.96;70.40
21828;BME280;11076;47.942;11.804;2023-05-01T11:44:17;94068.06;;;16.20;66.95
21828;BME280;11076;47.942;11.804;2023-05-01T11:49:28;94062.31;;;16.59;67.25
21828;BME280;11076;47.942;11.804;2023-05-01T11:54:30;94062.69;;;16.88;64.85
21828;BME280;11076;47.942;11.804;2023-05-01T11:59:33;94071.50;;;16.63;65.16
21828;BME280;11076;47.942;11.804;2023-05-01T12:04:35;94065.00;;;16.59;65.91
21828;BME280;11076;47.942;11.804;2023-05-01T12:09:38;94067.84;;;16.37;65.81
21828;BME280;11076;47.942;11.804;2023-05-01T12:14:41;94076.66;;;15.75;67.83
21828;BME280;11076;47.942;11.804;2023-05-01T12:19:47;94077.03;;;15.56;69.80
21828;BME280;11076;47.942;11.804;2023-05-01T12:24:52;94078.06;;;14.96;72.31
21828;BME280;11076;47.942;11.804;2023-05-01T12:29:55;94079.97;;;15.22;71.69
21828;BME280;11076;47.942;11.804;2023-05-01T12:34:58;94083.00;;;15.04;72.46
21828;BME280;11076;47.942;11.804;2023-05-01T12:40:00;94085.88;;;14.70;73.30
21828;BME280;11076;47.942;11.804;2023-05-01T12:45:03;94076.63;;;15.10;72.47
21828;BME280;11076;47.942;11.804;2023-05-01T12:50:07;94087.03;;;15.61;70.65
21828;BME280;11076;47.942;11.804;2023-05-01T12:55:11;94072.81;;;15.70;69.77
21828;BME280;11076;47.942;11.804;2023-05-01T13:00:14;94079.25;;;16.49;66.11
21828;BME280;11076;47.942;11.804;2023-05-01T13:05:17;94076.44;;;16.82;62.65
21828;BME280;11076;47.942;11.804;2023-05-01T13:10:30;94073.97;;;16.80;63.86
21828;BME280;11076;47.942;11.804;2023-05-01T13:15:33;94077.53;;;16.28;64.86
21828;BME280;11076;47.942;11.804;2023-05-01T13:20:35;94083.94;;;15.74;65.56
21828;BME280;11076;47.942;11.804;2023-05-01T13:25:40;94079.03;;;15.39;67.35
21828;BME280;11076;47.942;11.804;2023-05-01T13:30:43;94065.97;;;15.58;67.47
21828;BME280;11076;47.942;11.804;2023-05-01T13:35:45;94069.59;;;16.11;66.05
21828;BME280;11076;47.942;11.804;2023-05-01T13:40:48;94070.44;;;16.12;66.53
21828;BME280;11076;47.942;11.804;2023-05-01T13:45:56;94073.19;;;16.22;66.18
21828;BME280;11076;47.942;11.804;2023-05-01T13:50:58;94082.84;;;15.75;66.77
21828;BME280;11076;47.942;11.804;2023-05-01T13:56:08;94079.09;;;15.44;68.10
21828;BME280;11076;47.942;11.804;2023-05-01T14:01:16;94083.41;;;15.18;68.72
21828;BME280;11076;47.942;11.804;2023-05-01T14:06:19;94084.00;;;14.98;70.11
21828;BME280;11076;47.942;11.804;2023-05-01T14:11:22;94086.44;;;14.72;70.76
21828;BME280;11076;47.942;11.804;2023-05-01T14:16:26;94079.75;;;14.75;71.37
21828;BME280;11076;47.942;11.804;2023-05-01T14:21:29;94080.66;;;14.85;71.05
21828;BME280;11076;47.942;11.804;2023-05-01T14:26:31;94080.38;;;14.60;72.14
21828;BME280;11076;47.942;11.804;2023-05-01T14:31:34;94069.47;;;14.27;72.83
21828;BME280;11076;47.942;11.804;2023-05-01T14:36:37;94079.28;;;14.17;73.07
21828;BME280;11076;47.942;11.804;2023-05-01T14:41:41;94080.97;;;14.23;73.59
21828;BME280;11076;47.942;11.804;2023-05-01T14:46:46;94086.78;;;14.15;73.82
21828;BME280;11076;47.942;11.804;2023-05-01T14:51:52;94087.25;;;14.11;74.39
21828;BME280;11076;47.942;11.804;2023-05-01T14:56:55;94084.56;;;14.11;75.08
21828;BME280;11076;47.942;11.804;2023-05-01T15:01:57;94080.41;;;14.21;74.20
21828;BME280;11076;47.942;11.804;2023-05-01T15:07:00;94092.56;;;14.06;74.61
21828;BME280;11076;47.942;11.804;2023-05-01T15:12:02;94094.41;;;14.23;74.67
21828;BME280;11076;47.942;11.804;2023-05-01T15:17:06;94104.94;;;14.07;74.73
21828;BME280;11076;47.942;11.804;2023-05-01T15:22:08;94102.19;;;14.02;75.16
21828;BME280;11076;47.942;11.804;2023-05-01T15:27:10;94104.00;;;13.80;75.08
21828;BME280;11076;47.942;11.804;2023-05-01T15:32:13;94108.66;;;13.67;76.44
21828;BME280;11076;47.942;11.804;2023-05-01T15:37:15;94108.81;;;13.44;78.02
21828;BME280;11076;47.942;11.804;2023-05-01T15:42:18;94118.16;;;13.12;80.78
21828;BME280;11076;47.942;11.804;2023-05-01T15:47:21;94118.28;;;13.18;82.30
21828;BME280;11076;47.942;11.804;2023-05-01T15:52:23;94131.66;;;13.29;83.29
21828;BME280;11076;47.942;11.804;2023-05-01T15:57:28;94134.34;;;13.29;84.79
21828;BME280;11076;47.942;11.804;2023-05-01T16:02:32;94133.72;;;13.39;85.28
21828;BME280;11076;47.942;11.804;2023-05-01T16:07:34;94141.31;;;13.30;86.58
21828;BME280;11076;47.942;11.804;2023-05-01T16:12:37;94139.97;;;13.16;87.52
21828;BME280;11076;47.942;11.804;2023-05-01T16:17:42;94138.19;;;12.93;89.58
21828;BME280;11076;47.942;11.804;2023-05-01T16:22:47;94132.69;;;12.71;91.76
21828;BME280;11076;47.942;11.804;2023-05-01T16:27:50;94145.06;;;12.60;93.06
21828;BME280;11076;47.942;11.804;2023-05-01T16:32:52;94142.56;;;12.30;96.78
21828;BME280;11076;47.942;11.804;2023-05-01T16:37:55;94150.41;;;12.20;97.78
21828;BME280;11076;47.942;11.804;2023-05-01T16:42:57;94151.34;;;12.02;98.92
21828;BME280;11076;47.942;11.804;2023-05-01T16:48:03;94151.78;;;12.10;100.00
21828;BME280;11076;47.942;11.804;2023-05-01T16:53:06;94156.09;;;12.11;99.90
21828;BME280;11076;47.942;11.804;2023-05-01T16:58:09;94159.84;;;12.10;100.00
21828;BME280;11076;47.942;11.804;2023-05-01T17:03:12;94155.41;;;12.04;100.00
21828;BME280;11076;47.942;11.804;2023-05-01T17:08:15;94162.28;;;12.00;100.00
21828;BME280;11076;47.942;11.804;2023-05-01T17:13:18;94163.75;;;11.84;100.00
21828;BME280;11076;47.942;11.804;2023-05-01T17:18:21;94166.09;;;11.81;100.00
21828;BME280;11076;47.942;11.804;2023-05-01T17:23:23;94165.28;;;11.80;100.00
21828;BME280;11076;47.942;11.804;2023-05-01T17:28:29;94169.78;;;11.80;100.00
21828;BME280;11076;47.942;11.804;2023-05-01T17:33:31;94162.00;;;11.78;100.00
21828;BME280;11076;47.942;11.804;2023-05-01T17:38:34;94167.94;;;11.68;100.00
21828;BME280;11076;47.942;11.804;2023-05-01T17:43:36;94172.56;;;11.61;100.00
21828;BME280;11076;47.942;11.804;2023-05-01T17:48:40;94177.69;;;11.51;100.00
21828;BME280;11076;47.942;11.804;2023-05-01T17:53:43;94190.91;;;11.46;100.00
21828;BME280;11076;47.942;11.804;2023-05-01T17:58:45;94199.59;;;11.29;100.00
21828;BME280;11076;47.942;11.804;2023-05-01T18:03:48;94204.09;;;11.17;100.00
21828;BME280;11076;47.942;11.804;2023-05-01T18:08:50;94198.47;;;11.07;100.00
21828;BME280;11076;47.942;11.804;2023-05-01T18:13:53;94204.53;;;11.02;100.00
21828;BME280;11076;47.942;11.804;2023-05-01T18:18:55;94210.16;;;10.94;100.00
21828;BME280;11076;47.942;11.804;2023-05-01T18:23:59;94216.28;;;10.83;100.00
21828;BME280;11076;47.942;11.804;2023-05-01T18:29:03;94219.91;;;10.70;100.00
21828;BME280;11076;47.942;11.804;2023-05-01T18:34:06;94223.25;;;10.65;100.00
21828;BME280;11076;47.942;11.804;2023-05-01T18:39:08;94225.44;;;10.57;100.00
21828;BME280;11076;47.942;11.804;2023-05-01T18:44:10;94229.13;;;10.55;100.00
21828;BME280;11076;47.942;11.804;2023-05-01T18:49:14;94239.91;;;10.49;100.00
21828;BME280;11076;47.942;11.804;2023-05-01T18:54:16;94246.47;;;10.46;100.00
21828;BME280;11076;47.942;11.804;2023-05-01T18:59:19;94254.19;;;10.36;100.00
21828;BME280;11076;47.942;11.804;2023-05-01T19:04:22;94261.63;;;10.34;100.00
21828;BME280;11076;47.942;11.804;2023-05-01T19:09:25;94274.41;;;10.25;100.00
21828;BME280;11076;47.942;11.804;2023-05-01T19:14:27;94279.59;;;10.20;100.00
21828;BME280;11076;47.942;11.804;2023-05-01T19:19:29;94286.63;;;10.14;100.00
21828;BME280;11076;47.942;11.804;2023-05-01T19:24:32;94280.53;;;10.07;100.00
21828;BME280;11076;47.942;11.804;2023-05-01T19:29:34;94295.38;;;10.03;100.00
21828;BME280;11076;47.942;11.804;2023-05-01T19:34:37;94302.19;;;9.92;100.00
21828;BME280;11076;47.942;11.804;2023-05-01T19:39:39;94296.25;;;9.90;100.00
21828;BME280;11076;47.942;11.804;2023-05-01T19:44:41;94305.31;;;9.89;100.00
21828;BME280;11076;47.942;11.804;2023-05-01T19:49:44;94311.34;;;9.78;100.00
21828;BME280;11076;47.942;11.804;2023-05-01T19:54:46;94313.63;;;9.74;100.00
21828;BME280;11076;47.942;11.804;2023-05-01T19:59:49;94319.34;;;9.78;100.00
21828;BME280;11076;47.942;11.804;2023-05-01T20:04:53;94318.16;;;9.74;100.00
21828;BME280;11076;47.942;11.804;2023-05-01T20:09:56;94326.22;;;9.67;100.00
21828;BME280;11076;47.942;11.804;2023-05-01T20:14:58;94325.63;;;9.65;100.00
21828;BME280;11076;47.942;11.804;2023-05-01T20:20:01;94326.38;;;9.72;100.00
21828;BME280;11076;47.942;11.804;2023-05-01T20:31:41;94332.63;;;9.60;100.00
21828;BME280;11076;47.942;11.804;2023-05-01T20:36:44;94331.81;;;9.59;100.00
21828;BME280;11076;47.942;11.804;2023-05-01T20:41:46;94329.28;;;9.64;100.00
21828;BME280;11076;47.942;11.804;2023-05-01T20:46:49;94330.94;;;9.65;100.00
21828;BME280;11076;47.942;11.804;2023-05-01T20:51:51;94330.50;;;9.68;100.00
21828;BME280;11076;47.942;11.804;2023-05-01T20:56:55;94327.22;;;9.66;100.00
21828;BME280;11076;47.942;11.804;2023-05-01T21:02:02;94334.97;;;9.74;100.00
21828;BME280;11076;47.942;11.804;2023-05-01T21:07:04;94338.09;;;9.71;100.00
21828;BME280;11076;47.942;11.804;2023-05-01T21:12:07;94341.63;;;9.59;100.00
21828;BME280;11076;47.942;11.804;2023-05-01T21:17:10;94347.38;;;9.62;100.00
21828;BME280;11076;47.942;11.804;2023-05-01T21:22:19;94349.63;;;9.65;100.00
21828;BME280;11076;47.942;11.804;2023-05-01T21:27:23;94345.75;;;9.61;100.00
21828;BME280;11076;47.942;11.804;2023-05-01T21:32:35;94355.22;;;9.57;100.00
21828;BME280;11076;47.942;11.804;2023-05-01T21:37:42;94351.34;;;9.53;100.00
21828;BME280;11076;47.942;11.804;2023-05-01T21:42:44;94357.31;;;9.48;100.00
21828;BME280;11076;47.942;11.804;2023-05-01T21:47:48;94354.28;;;9.38;100.00
21828;BME280;11076;47.942;11.804;2023-05-01T21:52:53;94363.72;;;9.34;100.00
21828;BME280;11076;47.942;11.804;2023-05-01T21:57:57;94364.53;;;9.34;100.00
21828;BME280;11076;47.942;11.804;2023-05-01T22:03:01;94361.03;;;9.41;100.00
21828;BME280;11076;47.942;11.804;2023-05-01T22:08:07;94359.41;;;9.33;100.00
21828;BME280;11076;47.942;11.804;2023-05-01T22:13:10;94363.53;;;9.35;100.00
21828;BME280;11076;47.942;11.804;2023-05-01T22:18:12;94364.34;;;9.36;100.00
21828;BME280;11076;47.942;11.804;2023-05-01T22:23:18;94373.59;;;9.27;100.00
21828;BME280;11076;47.942;11.804;2023-05-01T22:28:21;94377.97;;;9.21;100.00
21828;BME280;11076;47.942;11.804;2023-05-01T22:33:23;94377.75;;;9.16;100.00
21828;BME280;11076;47.942;11.804;2023-05-01T22:38:26;94384.53;;;9.12;100.00
21828;BME280;11076;47.942;11.804;2023-05-01T22:43:28;94393.34;;;9.12;100.00
21828;BME280;11076;47.942;11.804;2023-05-01T22:48:31;94397.66;;;9.07;100.00
21828;BME280;11076;47.942;11.804;2023-05-01T22:53:33;94394.81;;;9.08;100.00
21828;BME280;11076;47.942;11.804;2023-05-01T22:58:35;94393.19;;;9.07;100.00
21828;BME280;11076;47.942;11.804;2023-05-01T23:03:38;94393.19;;;9.07;100.00
21828;BME280;11076;47.942;11.804;2023-05-01T23:08:40;94403.22;;;9.05;100.00
21828;BME280;11076;47.942;11.804;2023-05-01T23:13:46;94391.88;;;9.30;100.00
21828;BME280;11076;47.942;11.804;2023-05-01T23:18:49;94392.50;;;9.25;100.00
21828;BME280;11076;47.942;11.804;2023-05-01T23:23:51;94386.94;;;9.27;100.00
21828;BME280;11076;47.942;11.804;2023-05-01T23:28:54;94393.19;;;9.01;100.00
21828;BME280;11076;47.942;11.804;2023-05-01T23:33:56;94396.03;;;9.06;100.00
21828;BME280;11076;47.942;11.804;2023-05-01T23:39:02;94399.56;;;9.00;100.00
21828;BME280;11076;47.942;11.804;2023-05-01T23:44:05;94394.81;;;9.02;100.00
21828;BME280;11076;47.942;11.804;2023-05-01T23:49:07;94390.09;;;9.04;100.00
21828;BME280;11076;47.942;11.804;2023-05-01T23:54:10;94389.66;;;9.07;100.00
21828;BME280;11076;47.942;11.804;2023-05-01T23:59:12;94390.72;;;9.06;100.00
